Time;durP1;ratioP1;P1;durP2;ratioP2;P2;SDS_P1;SDS_P2;PMS_P1;PMS_P2;Temp;Humidity;BMP_temperature;BMP_pressure;BME280_temperature;BME280_humidity;BME280_pressure;Samples;Min_cycle;Max_cycle;Signal;HPM_P1;HPM_P2
2022/10/20 00:01:17;;;;;;;1.13;1.02;;;19.60;62.40;;;;;;5108503;27;43426;-58
2022/10/20 00:03:45;;;;;;;1.40;1.30;;;19.60;62.40;;;;;;5117670;27;43468;-58
2022/10/20 00:06:16;;;;;;;1.33;1.02;;;19.60;62.40;;;;;;5109271;27;44045;-58
2022/10/20 00:08:44;;;;;;;1.55;1.20;;;19.60;62.40;;;;;;5110477;27;43490;-58
2022/10/20 00:11:15;;;;;;;1.27;1.17;;;19.60;62.40;;;;;;5118404;27;43369;-58
2022/10/20 00:13:44;;;;;;;1.30;1.20;;;19.50;62.40;;;;;;5109449;27;43533;-58
2022/10/20 00:16:12;;;;;;;1.73;1.15;;;19.50;62.40;;;;;;5111070;27;44033;-58
2022/10/20 00:18:40;;;;;;;1.80;1.38;;;19.50;62.50;;;;;;5109023;27;43984;-58
2022/10/20 00:21:20;;;;;;;1.30;1.20;;;19.50;62.40;;;;;;5108631;27;43390;-58
2022/10/20 00:23:48;;;;;;;1.25;1.15;;;19.50;62.40;;;;;;5111910;27;43408;-58
2022/10/20 00:26:24;;;;;;;0.95;0.95;;;19.50;62.50;;;;;;5110849;27;44062;-58
2022/10/20 00:28:53;;;;;;;1.90;1.50;;;19.50;62.50;;;;;;5089593;27;44162;-58
2022/10/20 00:31:22;;;;;;;1.38;1.25;;;19.50;62.50;;;;;;5109212;27;43402;-58
2022/10/20 00:33:50;;;;;;;1.42;1.23;;;19.50;62.50;;;;;;5111908;27;43572;-58
2022/10/20 00:36:19;;;;;;;1.98;1.40;;;19.50;63.20;;;;;;5107805;27;44969;-58
2022/10/20 00:38:47;;;;;;;1.60;1.50;;;19.40;62.40;;;;;;5108626;27;43450;-58
2022/10/20 00:41:18;;;;;;;1.30;1.20;;;19.50;62.50;;;;;;5109784;27;43428;-58
2022/10/20 00:44:21;;;;;;;1.73;1.40;;;19.40;62.40;;;;;;5122717;27;43556;-58
2022/10/20 00:46:48;;;;;;;1.80;1.40;;;19.40;62.40;;;;;;5106699;27;44003;-58
2022/10/20 00:49:22;;;;;;;1.50;1.40;;;19.40;62.40;;;;;;5109615;27;43503;-58
2022/10/20 00:51:51;;;;;;;2.83;1.40;;;19.40;62.40;;;;;;5108345;27;43385;-58
2022/10/20 00:54:23;;;;;;;1.92;1.50;;;19.40;62.40;;;;;;5108414;27;43628;-58
2022/10/20 00:56:53;;;;;;;1.65;1.52;;;19.40;62.40;;;;;;5107531;27;43885;-58
2022/10/20 00:59:25;;;;;;;2.20;1.30;;;19.40;62.40;;;;;;5114351;27;43492;-57
2022/10/20 01:01:53;;;;;;;2.30;1.30;;;19.40;62.40;;;;;;5108407;27;43470;-58
2022/10/20 01:04:21;;;;;;;1.30;1.20;;;19.40;62.40;;;;;;5104326;27;43428;-58
2022/10/20 01:06:49;;;;;;;1.20;1.20;;;19.40;62.40;;;;;;5108752;27;43847;-58
2022/10/20 01:09:17;;;;;;;1.42;1.33;;;19.40;62.40;;;;;;5110577;27;44474;-58
2022/10/20 01:11:57;;;;;;;1.45;1.35;;;19.40;62.40;;;;;;5107499;27;43475;-58
2022/10/20 01:14:38;;;;;;;1.52;1.42;;;19.40;62.40;;;;;;5108054;27;43486;-58
2022/10/20 01:17:15;;;;;;;;;;;19.30;62.40;;;;;;5117828;27;45273;-58
2022/10/20 01:20:13;;;;;;;1.50;1.30;;;19.30;62.30;;;;;;5107757;27;43433;-58
2022/10/20 01:23:05;;;;;;;1.30;1.20;;;19.30;62.40;;;;;;5110093;27;43341;-58
2022/10/20 01:25:41;;;;;;;1.30;1.17;;;19.30;62.40;;;;;;5114068;27;43507;-58
2022/10/20 01:28:34;;;;;;;1.25;1.15;;;19.30;62.50;;;;;;5107975;27;44685;-57
2022/10/20 01:31:11;;;;;;;1.50;1.40;;;19.20;62.40;;;;;;5108402;27;43445;-58
2022/10/20 01:33:45;;;;;;;1.27;1.15;;;19.30;62.40;;;;;;5106648;27;43378;-58
2022/10/20 01:36:42;;;;;;;1.38;1.25;;;19.20;62.30;;;;;;5118963;27;43506;-58
2022/10/20 01:39:16;;;;;;;1.40;1.10;;;19.20;62.30;;;;;;5107124;27;45009;-58
2022/10/20 01:42:05;;;;;;;1.45;1.35;;;19.20;62.40;;;;;;5110406;27;44036;-58
2022/10/20 01:44:35;;;;;;;1.63;1.30;;;19.20;62.30;;;;;;5107440;27;43524;-58
2022/10/20 01:47:04;;;;;;;1.60;1.30;;;19.20;62.40;;;;;;5107323;27;43553;-58
2022/10/20 01:49:31;;;;;;;1.17;1.15;;;19.20;62.40;;;;;;5106880;27;44034;-58
2022/10/20 01:51:59;;;;;;;1.17;1.17;;;19.20;62.40;;;;;;5108494;27;43452;-58
2022/10/20 01:54:28;;;;;;;1.85;1.48;;;19.20;62.40;;;;;;5110130;27;43453;-58
2022/10/20 01:57:37;;;;;;;1.20;1.10;;;19.20;62.40;;;;;;5108147;27;43700;-58
2022/10/20 02:00:10;;;;;;;1.42;1.20;;;19.20;62.40;;;;;;5106558;27;44756;-58
2022/10/20 02:03:05;;;;;;;1.20;1.10;;;19.20;62.40;;;;;;5107779;27;43528;-58
2022/10/20 02:05:45;;;;;;;1.30;1.20;;;19.20;62.40;;;;;;5105922;27;43481;-58
2022/10/20 02:08:25;;;;;;;1.38;1.27;;;19.10;62.30;;;;;;5107613;27;43529;-58
2022/10/20 02:11:00;;;;;;;1.60;1.42;;;19.10;62.30;;;;;;5107687;27;45005;-58
2022/10/20 02:13:29;;;;;;;1.30;1.20;;;19.10;62.30;;;;;;5117467;27;43456;-58
2022/10/20 02:16:01;;;;;;;1.52;1.42;;;19.10;62.30;;;;;;5106368;27;43456;-58
2022/10/20 02:18:33;;;;;;;1.10;1.10;;;19.10;62.30;;;;;;5107006;27;43563;-58
2022/10/20 02:21:02;;;;;;;1.40;1.30;;;19.10;62.30;;;;;;5106865;27;45005;-58
2022/10/20 02:23:33;;;;;;;2.13;1.40;;;19.10;62.30;;;;;;5107446;27;43958;-58
2022/10/20 02:26:06;;;;;;;1.35;1.13;;;19.10;62.30;;;;;;5109099;27;43417;-58
2022/10/20 02:28:36;;;;;;;1.52;1.42;;;19.10;62.30;;;;;;5106208;27;43442;-58
2022/10/20 02:31:04;;;;;;;1.55;1.10;;;19.10;62.20;;;;;;5088944;27;45326;-58
2022/10/20 02:33:33;;;;;;;1.10;0.98;;;19.10;62.30;;;;;;5108880;27;43471;-58
2022/10/20 02:36:04;;;;;;;1.40;1.30;;;19.10;62.30;;;;;;5107329;27;43956;-58
2022/10/20 02:38:31;;;;;;;1.48;1.30;;;19.00;62.20;;;;;;5106554;27;43490;-58
2022/10/20 02:40:59;;;;;;;1.40;1.30;;;19.00;62.20;;;;;;5105235;27;44993;-58
2022/10/20 02:43:26;;;;;;;2.67;1.20;;;19.00;62.30;;;;;;5121367;27;43412;-58
2022/10/20 02:45:53;;;;;;;1.15;1.13;;;19.00;62.30;;;;;;5107086;27;43430;-58
2022/10/20 02:48:21;;;;;;;1.25;1.15;;;19.00;62.30;;;;;;5106839;27;43596;-58
2022/10/20 02:50:48;;;;;;;1.27;1.05;;;19.00;62.30;;;;;;5105438;27;44133;-58
2022/10/20 02:53:16;;;;;;;1.35;1.25;;;19.00;62.20;;;;;;5109605;27;43415;-58
2022/10/20 02:55:43;;;;;;;1.00;1.00;;;19.00;62.20;;;;;;5107083;27;43458;-58
2022/10/20 02:58:10;;;;;;;1.25;1.15;;;19.00;62.20;;;;;;5109995;27;43609;-58
2022/10/20 03:00:38;;;;;;;1.00;1.00;;;19.00;62.30;;;;;;5107862;27;44043;-58
2022/10/20 03:03:05;;;;;;;1.65;1.17;;;18.90;62.20;;;;;;5106150;27;44272;-58
2022/10/20 03:05:37;;;;;;;1.33;1.23;;;19.00;62.30;;;;;;5105544;27;43536;-58
2022/10/20 03:08:04;;;;;;;1.35;1.25;;;19.00;62.30;;;;;;5106517;27;43478;-58
2022/10/20 03:10:34;;;;;;;1.10;1.02;;;18.90;62.20;;;;;;5105264;27;44988;-57
2022/10/20 03:13:01;;;;;;;1.30;1.20;;;18.90;62.20;;;;;;5119854;27;43934;-58
2022/10/20 03:15:28;;;;;;;1.50;1.40;;;18.90;62.20;;;;;;5109492;27;43416;-58
2022/10/20 03:17:56;;;;;;;1.25;1.17;;;18.90;62.20;;;;;;5114217;27;43556;-58
2022/10/20 03:20:23;;;;;;;1.50;1.20;;;18.90;62.30;;;;;;5109744;27;44809;-58
2022/10/20 03:22:51;;;;;;;1.00;1.00;;;18.90;62.30;;;;;;5113217;27;43431;-58
2022/10/20 03:25:18;;;;;;;1.42;1.33;;;18.80;62.30;;;;;;5117579;27;43444;-58
2022/10/20 03:27:50;;;;;;;1.30;1.20;;;18.80;62.20;;;;;;5114533;27;44103;-58
2022/10/20 03:30:18;;;;;;;1.27;1.17;;;18.80;62.30;;;;;;5110238;27;44056;-58
2022/10/20 03:32:45;;;;;;;1.38;1.27;;;18.80;62.20;;;;;;5112100;27;43454;-58
2022/10/20 03:35:13;;;;;;;1.55;1.30;;;18.80;62.30;;;;;;5109144;27;43560;-58
2022/10/20 03:37:40;;;;;;;1.45;1.30;;;18.80;62.30;;;;;;5109548;27;43561;-58
2022/10/20 03:40:08;;;;;;;1.30;1.20;;;18.80;62.30;;;;;;5109498;27;43884;-58
2022/10/20 03:42:35;;;;;;;1.33;1.23;;;18.80;62.30;;;;;;5094137;27;43418;-58
2022/10/20 03:45:04;;;;;;;1.40;1.27;;;18.80;62.20;;;;;;5089976;27;43524;-58
2022/10/20 03:47:31;;;;;;;1.42;1.33;;;18.70;62.20;;;;;;5108641;27;43419;-58
2022/10/20 03:49:59;;;;;;;1.58;1.48;;;18.80;62.30;;;;;;5109603;27;43831;-58
2022/10/20 03:52:26;;;;;;;1.85;1.20;;;18.80;62.30;;;;;;5111978;27;43442;-58
2022/10/20 03:54:53;;;;;;;1.60;1.50;;;18.70;62.20;;;;;;5109365;27;43530;-58
2022/10/20 03:57:21;;;;;;;1.40;1.30;;;18.70;62.20;;;;;;5090266;27;43577;-58
2022/10/20 03:59:48;;;;;;;1.27;1.17;;;18.70;62.20;;;;;;5104951;27;43927;-58
2022/10/20 04:02:42;;;;;;;1.42;1.33;;;18.70;62.10;;;;;;5111937;27;43403;-58
2022/10/20 04:05:14;;;;;;;1.30;1.20;;;18.70;62.10;;;;;;5109212;27;43450;-58
2022/10/20 04:07:42;;;;;;;1.20;1.20;;;18.70;62.10;;;;;;5090880;27;43522;-58
2022/10/20 04:10:10;;;;;;;1.48;1.30;;;18.70;62.10;;;;;;5112267;27;44069;-58
2022/10/20 04:12:38;;;;;;;1.23;1.20;;;18.70;62.00;;;;;;5108845;27;43954;-58
2022/10/20 04:15:07;;;;;;;1.40;1.40;;;18.70;61.90;;;;;;5108511;27;43437;-58
2022/10/20 04:17:35;;;;;;;2.40;1.48;;;18.70;62.70;;;;;;5106163;27;43537;-58
2022/10/20 04:20:04;;;;;;;1.60;1.50;;;18.70;62.00;;;;;;5111845;27;44029;-58
2022/10/20 04:22:32;;;;;;;1.85;1.55;;;18.60;62.00;;;;;;5107994;27;43424;-58
2022/10/20 04:24:59;;;;;;;1.40;1.30;;;18.60;62.00;;;;;;5108842;27;43431;-58
2022/10/20 04:27:27;;;;;;;1.95;1.50;;;18.60;62.00;;;;;;5107991;27;43529;-58
2022/10/20 04:29:55;;;;;;;2.22;1.60;;;18.60;61.90;;;;;;5110947;27;43987;-58
2022/10/20 04:32:22;;;;;;;1.60;1.50;;;18.60;61.90;;;;;;5107890;27;43488;-58
2022/10/20 04:34:50;;;;;;;1.30;1.20;;;18.60;61.90;;;;;;5107949;27;43412;-59
2022/10/20 04:37:17;;;;;;;1.63;1.52;;;18.60;61.90;;;;;;5110154;27;43534;-58
2022/10/20 04:39:44;;;;;;;1.55;1.45;;;18.60;61.90;;;;;;5110734;27;44995;-58
2022/10/20 04:42:12;;;;;;;1.20;1.20;;;18.60;61.90;;;;;;5113970;27;43459;-58
2022/10/20 04:44:39;;;;;;;1.50;1.40;;;18.60;61.90;;;;;;5111492;27;43482;-58
2022/10/20 04:47:06;;;;;;;1.52;1.40;;;18.60;61.90;;;;;;5109864;27;43520;-58
2022/10/20 04:49:34;;;;;;;1.50;1.40;;;18.60;61.90;;;;;;5109318;27;44027;-59
2022/10/20 04:52:01;;;;;;;1.65;1.55;;;18.60;62.00;;;;;;5108813;27;43835;-58
2022/10/20 04:54:29;;;;;;;1.40;1.30;;;18.60;61.80;;;;;;5107732;27;43431;-58
2022/10/20 04:56:56;;;;;;;1.60;1.50;;;18.60;61.80;;;;;;5109179;27;43485;-58
2022/10/20 04:59:24;;;;;;;1.30;1.20;;;18.50;62.00;;;;;;5115215;27;44751;-58
2022/10/20 05:01:51;;;;;;;1.40;1.30;;;18.50;62.00;;;;;;5107833;27;43654;-58
2022/10/20 05:04:20;;;;;;;1.23;1.13;;;18.50;62.10;;;;;;5122907;27;43476;-58
2022/10/20 05:06:48;;;;;;;1.30;1.20;;;18.50;62.10;;;;;;5120015;27;43502;-58
2022/10/20 05:09:16;;;;;;;1.50;1.40;;;18.50;62.00;;;;;;5108570;27;45001;-58
2022/10/20 05:11:44;;;;;;;2.83;1.50;;;18.50;62.10;;;;;;5107418;27;43500;-59
2022/10/20 05:14:11;;;;;;;1.50;1.40;;;18.50;62.10;;;;;;5119578;27;43468;-58
2022/10/20 05:16:38;;;;;;;1.50;1.40;;;18.50;62.10;;;;;;5120428;27;43523;-58
2022/10/20 05:19:06;;;;;;;1.65;1.40;;;18.50;62.10;;;;;;5118172;27;44791;-58
2022/10/20 05:21:34;;;;;;;1.48;1.38;;;18.50;62.10;;;;;;5110325;27;43429;-58
2022/10/20 05:24:04;;;;;;;1.80;1.70;;;18.50;62.00;;;;;;5120194;27;43424;-59
2022/10/20 05:26:35;;;;;;;1.60;1.50;;;18.50;62.00;;;;;;5122201;27;43612;-58
2022/10/20 05:29:08;;;;;;;1.85;1.52;;;18.50;62.00;;;;;;5091561;27;44069;-58
2022/10/20 05:31:41;;;;;;;1.50;1.40;;;18.50;62.50;;;;;;5111935;27;43973;-58
2022/10/20 05:34:10;;;;;;;1.45;1.35;;;18.50;62.10;;;;;;5121034;27;43376;-58
2022/10/20 05:36:37;;;;;;;1.63;1.52;;;18.50;62.10;;;;;;5116480;27;43572;-58
2022/10/20 05:39:05;;;;;;;1.60;1.50;;;18.50;62.00;;;;;;5108588;27;45286;-58
2022/10/20 05:41:33;;;;;;;1.60;1.50;;;18.50;61.90;;;;;;5120578;27;43428;-57
2022/10/20 05:44:07;;;;;;;1.60;1.50;;;18.40;61.90;;;;;;5122074;27;43509;-58
2022/10/20 05:46:40;;;;;;;1.70;1.60;;;18.40;61.90;;;;;;5108456;27;43541;-58
2022/10/20 05:49:13;;;;;;;1.48;1.38;;;18.40;61.90;;;;;;5110265;27;44033;-58
2022/10/20 05:51:40;;;;;;;1.98;1.70;;;18.50;61.90;;;;;;5113372;27;43713;-58
2022/10/20 05:54:10;;;;;;;1.70;1.60;;;18.40;61.90;;;;;;5122518;27;43473;-58
2022/10/20 05:56:38;;;;;;;1.50;1.38;;;18.40;61.90;;;;;;5108227;27;43529;-58
2022/10/20 05:59:05;;;;;;;1.17;1.08;;;18.40;61.90;;;;;;5111877;27;45061;-58
2022/10/20 06:01:49;;;;;;;2.42;1.75;;;18.40;61.90;;;;;;5115683;27;43447;-58
2022/10/20 06:04:22;;;;;;;1.48;1.38;;;18.40;61.90;;;;;;5112149;27;43493;-58
2022/10/20 06:06:51;;;;;;;1.90;1.48;;;18.40;61.80;;;;;;5105789;27;43518;-58
2022/10/20 06:09:19;;;;;;;1.50;1.40;;;18.40;61.90;;;;;;5108393;27;44795;-58
2022/10/20 06:11:48;;;;;;;1.52;1.42;;;18.40;62.00;;;;;;5120430;27;43979;-58
2022/10/20 06:14:16;;;;;;;1.50;1.40;;;18.40;62.20;;;;;;5118304;27;43470;-58
2022/10/20 06:16:44;;;;;;;2.85;1.55;;;18.30;62.10;;;;;;5115815;27;43549;-58
2022/10/20 06:19:12;;;;;;;1.60;1.50;;;18.30;62.00;;;;;;5110501;27;43942;-58
2022/10/20 06:21:39;;;;;;;1.85;1.70;;;18.30;62.00;;;;;;5116307;27;44021;-58
2022/10/20 06:24:12;;;;;;;1.95;1.60;;;18.30;62.00;;;;;;5117567;27;43361;-58
2022/10/20 06:26:39;;;;;;;1.67;1.58;;;18.30;62.00;;;;;;5088437;27;43638;-57
2022/10/20 06:29:10;;;;;;;1.88;1.70;;;18.30;62.00;;;;;;5112472;27;44692;-58
2022/10/20 06:31:40;;;;;;;1.52;1.45;;;18.20;62.10;;;;;;5115264;27;43371;-58
2022/10/20 06:34:11;;;;;;;1.95;1.85;;;18.30;62.20;;;;;;5118699;27;43456;-57
2022/10/20 06:36:39;;;;;;;;;;;18.20;62.10;;;;;;5110832;27;43488;-57
2022/10/20 06:39:10;;;;;;;1.80;1.60;;;18.20;62.20;;;;;;5120981;27;45175;-57
2022/10/20 06:41:37;;;;;;;1.75;1.65;;;18.20;62.30;;;;;;5115923;27;43812;-57
2022/10/20 06:44:06;;;;;;;2.60;1.50;;;18.20;62.30;;;;;;5121699;27;44048;-57
2022/10/20 06:46:35;;;;;;;2.20;1.70;;;18.20;62.30;;;;;;5110146;27;43495;-57
2022/10/20 06:49:06;;;;;;;2.22;1.90;;;18.20;62.30;;;;;;5116809;27;44991;-58
2022/10/20 06:51:35;;;;;;;1.70;1.60;;;18.10;62.20;;;;;;5122146;27;44304;-57
2022/10/20 06:54:03;;;;;;;2.35;1.73;;;18.20;62.20;;;;;;5120812;27;43378;-57
2022/10/20 06:56:32;;;;;;;1.73;1.63;;;18.20;62.20;;;;;;5113236;27;43593;-58
2022/10/20 06:59:00;;;;;;;1.70;1.60;;;18.10;62.20;;;;;;5101616;27;43968;-57
2022/10/20 07:01:30;;;;;;;1.75;1.65;;;18.20;62.20;;;;;;5120463;27;43373;-58
2022/10/20 07:04:03;;;;;;;1.80;1.70;;;18.20;62.20;;;;;;5116727;27;43424;-58
2022/10/20 07:06:36;;;;;;;1.70;1.60;;;18.20;62.20;;;;;;5121667;27;43587;-57
2022/10/20 07:09:08;;;;;;;1.83;1.58;;;18.20;62.10;;;;;;5112419;27;44957;-58
2022/10/20 07:11:36;;;;;;;1.70;1.60;;;18.20;62.10;;;;;;5111486;27;43947;-58
2022/10/20 07:14:04;;;;;;;1.73;1.63;;;18.20;62.10;;;;;;5119631;27;43536;-58
2022/10/20 07:16:33;;;;;;;1.88;1.73;;;18.20;62.10;;;;;;5125078;27;43567;-58
2022/10/20 07:19:03;;;;;;;1.70;1.60;;;18.20;62.10;;;;;;5114246;27;43874;-58
2022/10/20 07:21:31;;;;;;;1.60;1.50;;;18.20;62.20;;;;;;5114329;27;44020;-58
2022/10/20 07:24:06;;;;;;;1.70;1.60;;;18.20;62.20;;;;;;5123626;27;43398;-58
2022/10/20 07:26:36;;;;;;;1.80;1.70;;;18.20;62.10;;;;;;5112212;27;43462;-58
2022/10/20 07:29:04;;;;;;;1.63;1.52;;;18.30;62.20;;;;;;5113153;27;44982;-58
2022/10/20 07:31:37;;;;;;;1.63;1.52;;;18.30;62.10;;;;;;5116801;27;44129;-58
2022/10/20 07:34:06;;;;;;;1.73;1.63;;;18.30;62.00;;;;;;5125102;27;43408;-58
2022/10/20 07:36:52;;;;;;;1.40;1.40;;;18.30;62.10;;;;;;5110148;27;43402;-58
2022/10/20 07:39:20;;;;;;;1.85;1.75;;;18.30;62.10;;;;;;5112349;27;44041;-58
2022/10/20 07:41:47;;;;;;;1.88;1.60;;;18.40;62.00;;;;;;5118879;27;43991;-58
2022/10/20 07:44:15;;;;;;;1.63;1.52;;;18.40;62.10;;;;;;5122860;27;43512;-57
2022/10/20 07:46:43;;;;;;;1.77;1.60;;;18.40;62.00;;;;;;5110716;27;43635;-58
2022/10/20 07:49:11;;;;;;;2.17;1.98;;;18.40;62.00;;;;;;5113694;27;44783;-58
2022/10/20 07:51:58;;;;;;;2.72;2.00;;;18.40;61.40;;;;;;5102042;27;43436;-57
2022/10/20 07:54:26;;;;;;;2.08;1.95;;;18.40;61.30;;;;;;5090864;27;43481;-58
2022/10/20 07:56:53;;;;;;;2.10;1.90;;;18.40;61.40;;;;;;5090430;27;43534;-57
2022/10/20 07:59:21;;;;;;;1.90;1.80;;;18.40;61.40;;;;;;5097801;27;44807;-57
2022/10/20 08:01:48;;;;;;;1.60;1.50;;;18.40;61.50;;;;;;5100666;27;44068;-57
2022/10/20 08:04:18;;;;;;;2.35;1.75;;;18.50;61.60;;;;;;5090214;27;43533;-57
2022/10/20 08:06:46;;;;;;;1.98;1.80;;;18.50;61.60;;;;;;5090866;27;43589;-57
2022/10/20 08:09:13;;;;;;;2.70;1.67;;;18.50;61.60;;;;;;5101682;27;44800;-58
2022/10/20 08:11:40;;;;;;;2.15;1.77;;;18.50;61.60;;;;;;5103105;27;43988;-57
2022/10/20 08:14:08;;;;;;;1.73;1.50;;;18.50;61.60;;;;;;5089956;27;43427;-57
2022/10/20 08:16:35;;;;;;;1.73;1.63;;;18.50;61.50;;;;;;5092431;27;43583;-58
2022/10/20 08:19:07;;;;;;;2.05;1.77;;;18.60;61.60;;;;;;5102429;27;43810;-58
2022/10/20 08:21:48;;;;;;;;;;;18.60;61.50;;;;;;5088031;27;43484;-58
2022/10/20 08:24:16;;;;;;;1.70;1.60;;;18.60;61.40;;;;;;5090517;27;43390;-58
2022/10/20 08:26:44;;;;;;;1.83;1.73;;;18.60;61.50;;;;;;5095827;27;43641;-58
2022/10/20 08:29:11;;;;;;;1.88;1.48;;;18.70;61.60;;;;;;5099543;27;44983;-57
2022/10/20 08:31:39;;;;;;;2.13;1.60;;;18.60;61.50;;;;;;5098116;27;44340;-57
2022/10/20 08:34:07;;;;;;;1.90;1.65;;;18.70;61.60;;;;;;5090817;27;43401;-57
2022/10/20 08:36:38;;;;;;;1.73;1.63;;;18.70;61.40;;;;;;5098157;27;43625;-58
2022/10/20 08:39:05;;;;;;;1.77;1.67;;;18.80;61.50;;;;;;5103606;27;45137;-58
2022/10/20 08:41:37;;;;;;;1.58;1.48;;;18.70;61.50;;;;;;5090031;27;43668;-58
2022/10/20 08:44:31;;;;;;;1.58;1.48;;;18.80;61.50;;;;;;5095187;27;43494;-58
2022/10/20 08:47:04;;;;;;;1.65;1.55;;;18.80;61.50;;;;;;5101431;27;43533;-58
2022/10/20 08:49:33;;;;;;;2.25;1.50;;;18.80;61.40;;;;;;5088927;27;43892;-58
2022/10/20 08:52:02;;;;;;;1.90;1.70;;;18.80;61.40;;;;;;5110682;27;43429;-57
2022/10/20 08:54:32;;;;;;;2.00;1.60;;;18.90;61.30;;;;;;5100175;27;43412;-58
2022/10/20 08:57:00;;;;;;;1.67;1.58;;;18.90;61.30;;;;;;5120779;27;43517;-57
2022/10/20 08:59:27;;;;;;;2.13;1.60;;;18.90;61.30;;;;;;5095228;27;43898;-58
2022/10/20 09:01:56;;;;;;;1.60;1.50;;;18.90;61.40;;;;;;5110553;27;45037;-58
2022/10/20 09:04:31;;;;;;;2.80;1.42;;;18.90;61.30;;;;;;5115037;27;43533;-58
2022/10/20 09:07:04;;;;;;;1.83;1.67;;;19.00;61.40;;;;;;5120061;27;43433;-58
2022/10/20 09:09:32;;;;;;;2.33;1.80;;;19.00;61.50;;;;;;5115868;27;45330;-57
2022/10/20 09:12:06;;;;;;;1.95;1.58;;;19.00;61.30;;;;;;5112253;27;44057;-57
2022/10/20 09:14:36;;;;;;;1.80;1.60;;;19.10;61.30;;;;;;5120753;27;43578;-57
2022/10/20 09:17:05;;;;;;;1.73;1.63;;;19.10;61.30;;;;;;5121834;27;43433;-58
2022/10/20 09:19:37;;;;;;;2.92;1.48;;;19.20;61.40;;;;;;5109158;27;44679;-57
2022/10/20 09:22:06;;;;;;;2.15;1.38;;;19.10;61.30;;;;;;5118512;27;43440;-57
2022/10/20 09:24:35;;;;;;;2.78;1.50;;;19.20;61.30;;;;;;5120660;27;43513;-57
2022/10/20 09:27:22;;;;;;;2.33;1.40;;;19.20;61.50;;;;;;5121570;27;43615;-57
2022/10/20 09:29:49;;;;;;;1.70;1.60;;;19.20;61.50;;;;;;5112102;27;44053;-57
2022/10/20 09:32:34;;;;;;;1.92;1.70;;;19.20;61.30;;;;;;5119388;27;43722;-57
2022/10/20 09:35:26;;;;;;;2.75;1.70;;;19.30;60.70;;;;;;5107289;27;43490;-57
2022/10/20 09:37:54;;;;;;;1.60;1.50;;;19.30;60.90;;;;;;5109396;27;43490;-57
2022/10/20 09:40:23;;;;;;;2.17;1.55;;;19.30;60.30;;;;;;5117260;27;45007;-57
2022/10/20 09:42:57;;;;;;;1.85;1.60;;;19.40;60.80;;;;;;5111046;27;43403;-57
2022/10/20 09:45:31;;;;;;;2.45;1.60;;;19.40;61.00;;;;;;5114521;27;43469;-57
2022/10/20 09:48:22;;;;;;;2.35;1.73;;;19.50;61.10;;;;;;5112357;27;43473;-57
2022/10/20 09:50:51;;;;;;;;;;;19.50;61.20;;;;;;5116902;27;44761;-59
2022/10/20 09:53:22;;;;;;;2.25;1.50;;;19.50;61.20;;;;;;5122793;27;43418;-58
2022/10/20 09:55:51;;;;;;;3.35;1.65;;;19.50;61.30;;;;;;5098362;27;43502;-57
2022/10/20 09:58:37;;;;;;;2.33;1.55;;;19.50;61.30;;;;;;5113949;27;43411;-58
2022/10/20 10:01:13;;;;;;;2.22;1.70;;;19.60;60.90;;;;;;5118333;27;44008;-58
2022/10/20 10:03:43;;;;;;;2.88;1.40;;;19.60;60.90;;;;;;5110636;27;43492;-57
2022/10/20 10:06:42;;;;;;;2.17;1.45;;;19.70;61.10;;;;;;5115841;27;43505;-57
2022/10/20 10:09:31;;;;;;;2.38;1.38;;;19.70;61.10;;;;;;5116817;27;43865;-58
2022/10/20 10:12:03;;;;;;;1.90;1.65;;;19.70;61.20;;;;;;5114009;27;43798;-58
2022/10/20 10:14:35;;;;;;;1.67;1.50;;;19.70;61.10;;;;;;5097988;27;43479;-58
2022/10/20 10:17:03;;;;;;;1.50;1.27;;;19.80;61.20;;;;;;5121172;27;43564;-58
2022/10/20 10:19:32;;;;;;;2.08;1.60;;;19.70;61.00;;;;;;5115598;27;43557;-58
2022/10/20 10:22:02;;;;;;;1.63;1.50;;;19.80;61.10;;;;;;5116424;27;44220;-58
2022/10/20 10:24:47;;;;;;;1.50;1.40;;;19.80;61.10;;;;;;5116430;27;43387;-57
2022/10/20 10:27:25;;;;;;;2.25;1.52;;;19.80;61.10;;;;;;5114460;27;43481;-57
2022/10/20 10:29:55;;;;;;;2.22;1.67;;;19.80;61.10;;;;;;5098925;27;43521;-57
2022/10/20 10:32:29;;;;;;;1.50;1.40;;;19.80;61.20;;;;;;5118029;27;43722;-57
2022/10/20 10:35:12;;;;;;;2.30;1.55;;;19.80;61.20;;;;;;5116548;27;43376;-57
2022/10/20 10:37:43;;;;;;;2.83;1.98;;;19.80;61.20;;;;;;5090777;27;43530;-58
2022/10/20 10:40:13;;;;;;;;;;;19.90;61.30;;;;;;5119469;27;43533;-57
2022/10/20 10:42:47;;;;;;;1.60;1.50;;;19.80;61.20;;;;;;5119770;27;44154;-58
2022/10/20 10:45:15;;;;;;;2.70;1.70;;;19.90;61.20;;;;;;5113625;27;43432;-58
2022/10/20 10:48:08;;;;;;;2.25;1.42;;;19.90;61.30;;;;;;5115039;27;43422;-58
2022/10/20 10:50:40;;;;;;;1.50;1.30;;;20.00;61.20;;;;;;5101426;27;44159;-58
2022/10/20 10:53:22;;;;;;;1.60;1.50;;;20.00;61.00;;;;;;5114428;27;44693;-57
2022/10/20 10:55:55;;;;;;;1.85;1.65;;;20.10;60.90;;;;;;5112702;27;43476;-57
2022/10/20 10:58:45;;;;;;;1.42;1.33;;;20.10;60.90;;;;;;5117452;27;43388;-57
2022/10/20 11:01:36;;;;;;;1.70;1.50;;;20.10;60.80;;;;;;5109581;27;44019;-57
2022/10/20 11:04:31;;;;;;;1.50;1.40;;;20.10;60.90;;;;;;5120407;27;44728;-57
2022/10/20 11:07:02;;;;;;;1.50;1.40;;;20.20;60.90;;;;;;5117537;27;43429;-58
2022/10/20 11:09:38;;;;;;;2.53;1.80;;;20.20;60.80;;;;;;5114131;27;43446;-58
2022/10/20 11:12:40;;;;;;;1.63;1.52;;;20.20;60.70;;;;;;5111093;27;43376;-58
2022/10/20 11:15:24;;;;;;;1.90;1.67;;;20.30;60.70;;;;;;5116506;27;44591;-58
2022/10/20 11:18:18;;;;;;;1.65;1.55;;;20.30;60.70;;;;;;5121515;27;43811;-58
2022/10/20 11:21:22;;;;;;;1.60;1.50;;;20.40;60.50;;;;;;5110876;27;44041;-58
2022/10/20 11:24:30;;;;;;;3.67;2.67;;;20.40;60.40;;;;;;5079750;27;43429;-58
2022/10/20 11:27:07;;;;;;;3.95;2.80;;;20.50;60.50;;;;;;5106311;27;44058;-57
2022/10/20 11:30:07;;;;;;;2.53;2.20;;;20.50;60.60;;;;;;5108102;27;43438;-58
2022/10/20 11:33:03;;;;;;;2.40;2.20;;;20.60;60.50;;;;;;5110784;27;43456;-58
2022/10/20 11:35:50;;;;;;;3.75;2.10;;;20.70;60.50;;;;;;5107976;27;43602;-58
2022/10/20 11:38:21;;;;;;;3.00;2.00;;;20.80;60.20;;;;;;5109018;27;44292;-58
2022/10/20 11:41:05;;;;;;;1.95;1.70;;;20.90;60.10;;;;;;5109702;27;43452;-58
2022/10/20 11:43:40;;;;;;;1.85;1.75;;;21.10;59.80;;;;;;5085736;27;43499;-58
2022/10/20 11:46:16;;;;;;;1.85;1.67;;;21.20;59.60;;;;;;5084933;27;43482;-58
2022/10/20 11:48:52;;;;;;;1.95;1.73;;;21.30;59.40;;;;;;5107550;27;44892;-58
2022/10/20 11:51:51;;;;;;;1.83;1.70;;;21.40;59.30;;;;;;5106304;27;43504;-57
2022/10/20 11:54:49;;;;;;;1.80;1.70;;;21.50;59.20;;;;;;5107549;27;43702;-58
2022/10/20 11:57:55;;;;;;;2.40;1.98;;;21.60;59.10;;;;;;5103832;27;44171;-58
2022/10/20 12:00:45;;;;;;;1.90;1.80;;;21.60;58.80;;;;;;5105019;27;43938;-59
2022/10/20 12:03:40;;;;;;;9.50;7.05;;;21.70;58.90;;;;;;5117651;27;43473;-58
2022/10/20 12:06:31;;;;;;;7.43;5.47;;;21.70;59.00;;;;;;5103518;27;43552;-59
2022/10/20 12:09:13;;;;;;;7.25;6.20;;;21.80;58.90;;;;;;5106672;27;43553;-58
2022/10/20 12:12:13;;;;;;;6.13;4.60;;;21.90;58.90;;;;;;5086051;27;43794;-58
2022/10/20 12:14:44;;;;;;;6.53;4.88;;;22.00;58.70;;;;;;5103896;27;43465;-58
2022/10/20 12:17:12;;;;;;;5.50;4.38;;;22.10;58.40;;;;;;5116544;27;44236;-58
2022/10/20 12:19:39;;;;;;;4.40;4.00;;;22.20;58.20;;;;;;5098599;27;43466;-58
2022/10/20 12:22:13;;;;;;;4.72;3.97;;;22.40;58.20;;;;;;5117675;27;43887;-58
2022/10/20 12:25:04;;;;;;;4.40;4.00;;;22.50;57.70;;;;;;5117887;27;43725;-58
2022/10/20 12:27:31;;;;;;;4.40;3.80;;;22.60;57.70;;;;;;5075932;27;43762;-58
2022/10/20 12:30:25;;;;;;;3.97;3.58;;;22.80;57.40;;;;;;5116900;27;43485;-58
2022/10/20 12:33:10;;;;;;;6.07;3.30;;;22.90;57.40;;;;;;5093477;27;43964;-58
2022/10/20 12:36:12;;;;;;;3.42;3.08;;;23.00;57.00;;;;;;5118092;27;43397;-58
2022/10/20 12:38:41;;;;;;;3.90;2.90;;;23.10;56.80;;;;;;5121246;27;43541;-58
2022/10/20 12:41:22;;;;;;;4.15;3.20;;;23.20;57.00;;;;;;5122746;27;43464;-58
2022/10/20 12:43:59;;;;;;;4.03;2.80;;;23.30;56.70;;;;;;5099204;27;43936;-58
2022/10/20 12:46:30;;;;;;;3.30;2.92;;;23.50;56.40;;;;;;5114314;27;43424;-59
2022/10/20 12:49:03;;;;;;;;;;;23.60;56.30;;;;;;5121632;27;43433;-59
2022/10/20 12:51:49;;;;;;;2.88;2.60;;;23.80;56.10;;;;;;5113231;27;43564;-58
2022/10/20 12:54:39;;;;;;;4.00;2.60;;;23.90;55.70;;;;;;5117028;27;45029;-59
2022/10/20 12:57:36;;;;;;;2.75;2.55;;;24.00;55.50;;;;;;5096177;27;44144;-59
2022/10/20 13:00:06;;;;;;;5.18;2.67;;;24.10;55.30;;;;;;5123198;27;43433;-59
2022/10/20 13:02:49;;;;;;;2.50;2.30;;;24.20;55.30;;;;;;5114967;27;43604;-58
2022/10/20 13:05:17;;;;;;;2.65;2.03;;;24.30;54.90;;;;;;5121582;27;43800;-58
2022/10/20 13:07:47;;;;;;;2.88;2.10;;;24.30;55.10;;;;;;5116843;27;43593;-58
2022/10/20 13:10:27;;;;;;;2.63;2.20;;;24.50;54.70;;;;;;5113258;27;43463;-58
2022/10/20 13:13:01;;;;;;;2.15;2.00;;;24.50;54.90;;;;;;5118839;27;43503;-58
2022/10/20 13:15:46;;;;;;;2.10;1.77;;;24.60;54.60;;;;;;5113626;27;43808;-59
2022/10/20 13:18:31;;;;;;;2.63;1.70;;;24.70;54.70;;;;;;5111222;27;43685;-59
2022/10/20 13:21:01;;;;;;;1.95;1.80;;;24.70;54.60;;;;;;5117047;27;43485;-57